createdAt,value
2023-01-15T00:02:33.203Z,10.48
2023-01-15T00:05:03.554Z,9.95
2023-01-15T00:07:32.754Z,10.07
2023-01-15T00:10:01.193Z,8.45
2023-01-15T00:12:29.653Z,11.00
2023-01-15T00:14:58.447Z,7.90
2023-01-15T00:17:26.917Z,10.45
2023-01-15T00:19:55.273Z,9.75
2023-01-15T00:22:23.449Z,9.85
2023-01-15T00:25:26.639Z,10.13
2023-01-15T00:27:55.333Z,9.70
2023-01-15T00:30:24.925Z,9.68
2023-01-15T00:32:53.049Z,9.02
2023-01-15T00:35:25.089Z,10.43
2023-01-15T00:37:53.298Z,9.38
2023-01-15T00:40:21.876Z,9.82
2023-01-15T00:42:54.498Z,9.30
2023-01-15T00:45:23.983Z,10.27
2023-01-15T00:47:52.355Z,9.05
2023-01-15T00:50:22.567Z,10.45
2023-01-15T00:52:51.316Z,8.13
2023-01-15T00:55:21.529Z,10.70
2023-01-15T00:57:50.132Z,9.00
2023-01-15T01:00:19.192Z,10.10
2023-01-15T01:02:48.054Z,9.80
2023-01-15T01:05:16.791Z,9.80
2023-01-15T01:07:45.079Z,9.38
2023-01-15T01:10:13.494Z,8.43
2023-01-15T01:12:41.477Z,8.73
2023-01-15T01:15:10.880Z,9.27
2023-01-15T01:17:40.150Z,9.18
2023-01-15T01:20:10.433Z,7.65
2023-01-15T01:22:38.654Z,10.00
2023-01-15T01:25:07.755Z,7.45
2023-01-15T01:27:36.089Z,10.23
2023-01-15T01:30:04.882Z,8.65
2023-01-15T01:32:34.765Z,7.93
2023-01-15T01:35:02.990Z,8.50
2023-01-15T01:37:32.068Z,9.27
2023-01-15T01:40:00.332Z,7.65
2023-01-15T01:42:29.105Z,9.50
2023-01-15T01:45:17.301Z,6.97
2023-01-15T01:47:46.589Z,7.20
2023-01-15T01:50:15.008Z,7.97
2023-01-15T01:52:54.142Z,14.07
2023-01-15T01:55:26.297Z,9.98
2023-01-15T01:57:59.869Z,7.95
2023-01-15T02:00:30.708Z,9.38
2023-01-15T02:03:00.300Z,8.32
2023-01-15T02:05:40.937Z,11.05
2023-01-15T02:08:08.890Z,8.68
2023-01-15T02:10:37.526Z,8.25
2023-01-15T02:13:50.699Z,9.10
2023-01-15T02:16:42.535Z,9.73
2023-01-15T02:19:55.199Z,8.40
2023-01-15T02:22:46.678Z,9.30
2023-01-15T02:25:45.513Z,9.23
2023-01-15T02:28:46.665Z,9.52
2023-01-15T02:31:14.829Z,8.45
2023-01-15T02:34:02.394Z,7.80
2023-01-15T02:36:37.408Z,8.32
2023-01-15T02:39:12.644Z,8.30
2023-01-15T02:41:47.864Z,7.80
2023-01-15T02:44:19.937Z,8.52
2023-01-15T02:46:49.539Z,8.57
2023-01-15T02:49:21.443Z,10.05
2023-01-15T02:52:01.952Z,9.05
2023-01-15T02:54:46.542Z,7.97
2023-01-15T02:57:22.489Z,9.10
2023-01-15T02:59:59.091Z,9.05
2023-01-15T03:02:36.947Z,8.50
2023-01-15T03:05:26.673Z,7.07
2023-01-15T03:08:02.930Z,8.15
2023-01-15T03:10:59.047Z,8.02
2023-01-15T03:13:38.327Z,9.73
2023-01-15T03:16:35.445Z,7.80
2023-01-15T03:19:52.903Z,7.88
2023-01-15T03:22:31.022Z,8.25
2023-01-15T03:25:08.754Z,7.88
2023-01-15T03:27:43.754Z,7.32
2023-01-15T03:30:23.363Z,6.38
2023-01-15T03:32:55.329Z,8.65
2023-01-15T03:35:50.564Z,9.77
2023-01-15T03:38:47.253Z,7.22
2023-01-15T03:41:32.712Z,9.25
2023-01-15T03:44:16.116Z,7.60
2023-01-15T03:47:07.337Z,6.82
2023-01-15T03:49:48.853Z,7.80
2023-01-15T03:52:55.904Z,7.80
2023-01-15T03:55:44.985Z,10.93
2023-01-15T03:58:24.195Z,8.45
2023-01-15T04:00:59.993Z,8.25
2023-01-15T04:03:32.508Z,9.25
2023-01-15T04:06:03.487Z,7.78
2023-01-15T04:08:40.023Z,8.75
2023-01-15T04:11:08.754Z,7.45
2023-01-15T04:13:48.009Z,8.60
2023-01-15T04:16:33.489Z,7.43
2023-01-15T04:19:01.937Z,7.70
2023-01-15T04:21:31.145Z,8.20
2023-01-15T04:23:59.539Z,8.27
2023-01-15T04:26:27.947Z,8.43
2023-01-15T04:28:57.150Z,8.02
2023-01-15T04:31:25.654Z,9.60
2023-01-15T04:33:54.279Z,8.05
2023-01-15T04:36:22.543Z,9.75
2023-01-15T04:38:50.809Z,8.00
2023-01-15T04:41:38.354Z,9.65
2023-01-15T04:44:09.515Z,7.75
2023-01-15T04:46:43.475Z,7.90
2023-01-15T04:49:15.748Z,7.95
2023-01-15T04:51:44.621Z,8.68
2023-01-15T04:54:15.061Z,7.97
2023-01-15T04:56:46.613Z,7.63
2023-01-15T04:59:17.376Z,8.50
2023-01-15T05:02:01.893Z,7.70
2023-01-15T05:04:32.145Z,8.27
2023-01-15T05:07:03.474Z,8.88
2023-01-15T05:09:32.043Z,8.13
2023-01-15T05:12:00.198Z,7.53
2023-01-15T05:14:28.407Z,9.30
2023-01-15T05:16:57.182Z,8.25
2023-01-15T05:19:25.490Z,9.40
2023-01-15T05:21:54.749Z,8.27
2023-01-15T05:24:22.910Z,9.00
2023-01-15T05:26:50.953Z,8.13
2023-01-15T05:29:18.918Z,9.80
2023-01-15T05:31:47.518Z,7.18
2023-01-15T05:34:15.953Z,8.75
2023-01-15T05:36:45.415Z,7.72
2023-01-15T05:39:13.965Z,9.32
2023-01-15T05:41:51.714Z,7.68
2023-01-15T05:44:26.866Z,7.70
2023-01-15T05:47:03.019Z,7.93
2023-01-15T05:49:31.694Z,8.00
2023-01-15T05:52:02.260Z,6.65
2023-01-15T05:54:34.612Z,6.85
2023-01-15T05:57:02.951Z,7.90
2023-01-15T05:59:32.994Z,7.72
2023-01-15T06:02:01.250Z,7.72
2023-01-15T06:04:29.339Z,8.95
2023-01-15T06:06:58.683Z,9.48
2023-01-15T06:09:28.328Z,9.15
2023-01-15T06:11:56.701Z,7.78
2023-01-15T06:14:25.338Z,8.40
2023-01-15T06:16:54.092Z,7.38
2023-01-15T06:19:22.638Z,8.55
2023-01-15T06:21:51.152Z,8.10
2023-01-15T06:24:20.332Z,8.75
2023-01-15T06:26:48.574Z,8.35
2023-01-15T06:29:19.166Z,8.98
2023-01-15T06:31:49.761Z,7.75
2023-01-15T06:34:18.749Z,8.82
2023-01-15T06:36:47.286Z,8.35
2023-01-15T06:39:16.658Z,8.02
2023-01-15T06:42:06.107Z,6.85
2023-01-15T06:44:53.148Z,6.25
2023-01-15T06:47:23.449Z,9.75
2023-01-15T06:49:58.408Z,7.33
2023-01-15T06:52:28.650Z,9.13
2023-01-15T06:54:57.103Z,8.55
2023-01-15T06:57:25.525Z,9.98
2023-01-15T06:59:56.190Z,7.47
2023-01-15T07:02:24.822Z,8.02
2023-01-15T07:04:53.631Z,7.38
2023-01-15T07:07:22.157Z,8.63
2023-01-15T07:09:50.829Z,6.97
2023-01-15T07:12:19.432Z,9.77
2023-01-15T07:14:48.613Z,7.60
2023-01-15T07:17:17.141Z,8.23
2023-01-15T07:19:47.319Z,8.43
2023-01-15T07:22:15.349Z,8.82
2023-01-15T07:24:43.557Z,7.63
2023-01-15T07:27:11.845Z,8.32
2023-01-15T07:29:40.077Z,7.38
2023-01-15T07:32:08.546Z,7.25
2023-01-15T07:34:41.439Z,7.78
2023-01-15T07:37:12.516Z,8.18
2023-01-15T07:39:41.170Z,7.40
2023-01-15T07:42:30.032Z,8.60
2023-01-15T07:45:17.249Z,6.75
2023-01-15T07:48:05.533Z,8.40
2023-01-15T07:50:34.028Z,7.32
2023-01-15T07:53:02.880Z,8.15
2023-01-15T07:55:31.738Z,8.27
2023-01-15T07:58:03.603Z,6.63
2023-01-15T08:00:32.873Z,8.40
2023-01-15T08:03:02.743Z,6.75
2023-01-15T08:05:31.646Z,8.07
2023-01-15T08:08:00.179Z,7.13
2023-01-15T08:10:28.846Z,8.90
2023-01-15T08:13:16.168Z,7.75
2023-01-15T08:15:44.944Z,8.27
2023-01-15T08:18:14.515Z,7.72
2023-01-15T08:20:44.538Z,7.00
2023-01-15T08:23:13.919Z,7.47
2023-01-15T08:25:41.969Z,6.63
2023-01-15T08:28:14.925Z,7.82
2023-01-15T08:30:43.074Z,6.32
2023-01-15T08:33:11.410Z,8.00
2023-01-15T08:35:39.895Z,7.80
2023-01-15T08:38:08.883Z,7.90
2023-01-15T08:40:59.941Z,7.47
2023-01-15T08:43:36.121Z,9.20
2023-01-15T08:46:06.014Z,7.28
2023-01-15T08:48:35.083Z,6.85
2023-01-15T08:51:10.311Z,6.95
2023-01-15T08:53:39.601Z,7.15
2023-01-15T08:56:20.490Z,7.38
2023-01-15T08:58:49.049Z,7.95
2023-01-15T09:01:17.476Z,8.25
2023-01-15T09:03:46.402Z,7.47
2023-01-15T09:06:15.027Z,7.80
2023-01-15T09:08:43.884Z,7.05
2023-01-15T09:11:13.478Z,7.28
2023-01-15T09:13:44.389Z,7.00
2023-01-15T09:16:12.945Z,9.80
2023-01-15T09:18:41.715Z,6.97
2023-01-15T09:21:11.068Z,6.28
2023-01-15T09:23:39.629Z,7.80
2023-01-15T09:26:09.236Z,7.50
2023-01-15T09:28:37.741Z,6.70
2023-01-15T09:31:06.005Z,6.60
2023-01-15T09:33:34.703Z,6.70
2023-01-15T09:36:03.611Z,6.28
2023-01-15T09:38:34.852Z,7.47
2023-01-15T09:41:35.267Z,6.82
2023-01-15T09:44:47.594Z,6.97
2023-01-15T09:47:35.067Z,9.50
2023-01-15T09:50:27.406Z,8.02
2023-01-15T09:53:23.985Z,7.05
2023-01-15T09:55:53.589Z,6.70
2023-01-15T09:58:39.251Z,8.13
2023-01-15T10:01:15.559Z,8.52
2023-01-15T10:04:35.213Z,7.82
2023-01-15T10:07:46.618Z,6.40
2023-01-15T10:10:23.589Z,7.90
2023-01-15T10:12:58.787Z,6.63
2023-01-15T10:15:47.886Z,9.00
2023-01-15T10:18:25.883Z,8.80
2023-01-15T10:21:38.216Z,7.40
2023-01-15T10:27:00.098Z,8.38
2023-01-15T10:29:45.900Z,8.55
2023-01-15T10:33:06.583Z,7.05
2023-01-15T10:35:45.982Z,7.95
2023-01-15T10:38:38.728Z,7.53
2023-01-15T10:41:29.225Z,6.75
2023-01-15T10:44:30.386Z,6.53
2023-01-15T10:47:02.365Z,6.25
2023-01-15T10:49:34.157Z,6.33
2023-01-15T10:52:24.216Z,6.97
2023-01-15T10:55:29.033Z,6.05
2023-01-15T10:58:12.335Z,6.05
2023-01-15T11:00:47.235Z,5.65
2023-01-15T11:03:25.988Z,7.07
2023-01-15T11:05:55.388Z,7.72
2023-01-15T11:09:08.626Z,6.40
2023-01-15T11:11:55.289Z,7.85
2023-01-15T11:14:58.566Z,8.02
2023-01-15T11:18:12.153Z,8.82
2023-01-15T11:20:49.741Z,6.70
2023-01-15T11:23:22.086Z,8.30
2023-01-15T11:26:00.942Z,7.40
2023-01-15T11:28:43.512Z,7.47
2023-01-15T11:31:14.138Z,6.72
2023-01-15T11:34:04.061Z,7.10
2023-01-15T11:36:33.862Z,6.75
2023-01-15T11:39:02.441Z,6.82
2023-01-15T11:41:53.057Z,7.63
2023-01-15T11:44:42.662Z,8.05
2023-01-15T11:47:37.115Z,6.55
2023-01-15T11:50:36.994Z,7.18
2023-01-15T11:53:07.373Z,6.47
2023-01-15T11:55:35.983Z,6.32
2023-01-15T11:58:09.199Z,6.95
2023-01-15T12:00:45.344Z,6.72
2023-01-15T12:03:20.408Z,7.72
2023-01-15T12:05:59.610Z,7.45
2023-01-15T12:08:56.508Z,9.52
2023-01-15T12:11:53.957Z,8.05
2023-01-15T12:15:07.222Z,8.38
2023-01-15T12:18:09.696Z,7.35
2023-01-15T12:21:21.247Z,8.35
2023-01-15T12:24:22.909Z,7.13
2023-01-15T12:27:32.637Z,6.85
2023-01-15T12:30:32.857Z,6.93
2023-01-15T12:33:16.251Z,5.93
2023-01-15T12:36:17.100Z,6.10
2023-01-15T12:38:56.221Z,5.53
2023-01-15T12:41:50.706Z,8.00
2023-01-15T12:45:02.112Z,6.95
2023-01-15T12:47:49.652Z,6.03
2023-01-15T12:50:45.368Z,6.45
2023-01-15T12:53:44.172Z,7.57
2023-01-15T12:56:39.743Z,6.78
2023-01-15T12:59:35.024Z,5.75
2023-01-15T13:02:17.642Z,5.28
2023-01-15T13:05:19.601Z,6.40
2023-01-15T13:08:14.305Z,5.22
2023-01-15T13:10:43.294Z,5.45
2023-01-15T13:13:24.797Z,6.32
2023-01-15T13:16:08.118Z,5.43
2023-01-15T13:19:18.417Z,5.28
2023-01-15T13:21:53.189Z,6.10
2023-01-15T13:24:54.509Z,6.75
2023-01-15T13:27:53.019Z,7.22
2023-01-15T13:30:33.992Z,7.47
2023-01-15T13:33:56.919Z,5.90
2023-01-15T13:36:45.735Z,6.75
2023-01-15T13:39:24.055Z,7.07
2023-01-15T13:42:13.205Z,6.40
2023-01-15T13:44:51.263Z,5.78
2023-01-15T13:47:32.833Z,8.15
2023-01-15T13:50:14.211Z,6.35
2023-01-15T13:52:43.244Z,6.30
2023-01-15T13:55:16.092Z,5.22
2023-01-15T13:57:45.273Z,6.03
2023-01-15T14:00:36.557Z,6.30
2023-01-15T14:03:38.366Z,5.88
2023-01-15T14:06:10.224Z,5.57
2023-01-15T14:11:39.772Z,5.50
2023-01-15T14:15:00.419Z,5.40
2023-01-15T14:18:09.021Z,7.32
2023-01-15T14:21:13.989Z,5.15
2023-01-15T14:24:12.801Z,4.80
2023-01-15T14:26:52.335Z,5.50
2023-01-15T14:30:22.460Z,6.40
2023-01-15T14:33:48.429Z,6.30
2023-01-15T14:36:46.445Z,5.97
2023-01-15T14:39:49.427Z,6.13
2023-01-15T14:43:04.973Z,6.65
2023-01-15T14:45:42.486Z,6.63
2023-01-15T14:48:28.548Z,5.85
2023-01-15T14:51:42.579Z,5.50
2023-01-15T14:54:16.378Z,5.90
2023-01-15T14:56:52.257Z,5.03
2023-01-15T14:59:41.815Z,7.93
2023-01-15T15:02:25.641Z,4.35
2023-01-15T15:04:56.582Z,5.03
2023-01-15T15:07:30.297Z,7.95
2023-01-15T15:10:13.517Z,5.43
2023-01-15T15:13:06.127Z,6.57
2023-01-15T15:16:12.037Z,5.40
2023-01-15T15:18:58.807Z,4.70
2023-01-15T15:21:34.426Z,7.78
2023-01-15T15:24:23.801Z,5.95
2023-01-15T15:26:52.582Z,5.00
2023-01-15T15:29:22.300Z,7.35
2023-01-15T15:31:58.605Z,6.20
2023-01-15T15:34:34.197Z,6.55
2023-01-15T15:37:06.652Z,5.97
2023-01-15T15:40:03.673Z,5.80
2023-01-15T15:43:01.704Z,5.35
2023-01-15T15:45:50.780Z,8.20
2023-01-15T15:48:43.316Z,6.95
2023-01-15T15:51:42.394Z,5.75
2023-01-15T15:54:28.446Z,5.97
2023-01-15T15:57:17.361Z,6.93
2023-01-15T15:59:52.585Z,6.80
2023-01-15T16:02:40.728Z,8.40
2023-01-15T16:05:32.766Z,6.40
2023-01-15T16:08:20.121Z,7.05
2023-01-15T16:10:54.644Z,6.15
2023-01-15T16:13:37.102Z,8.85
2023-01-15T16:16:10.406Z,7.38
2023-01-15T16:18:44.783Z,7.00
2023-01-15T16:21:38.037Z,7.28
2023-01-15T16:24:21.448Z,7.07
2023-01-15T16:27:10.677Z,8.43
2023-01-15T16:29:40.085Z,6.95
2023-01-15T16:32:22.738Z,8.27
2023-01-15T16:34:58.672Z,7.40
2023-01-15T16:37:33.224Z,7.95
2023-01-15T16:40:05.167Z,8.05
2023-01-15T16:42:44.157Z,7.55
2023-01-15T16:45:27.926Z,7.38
2023-01-15T16:48:25.451Z,8.32
2023-01-15T16:50:54.432Z,9.75
2023-01-15T16:53:42.339Z,9.15
2023-01-15T16:56:38.037Z,7.63
2023-01-15T16:59:27.844Z,8.57
2023-01-15T17:02:16.867Z,6.75
2023-01-15T17:04:47.363Z,7.25
2023-01-15T17:07:23.683Z,9.37
2023-01-15T17:10:00.123Z,8.30
2023-01-15T17:12:37.713Z,9.32
2023-01-15T17:15:15.681Z,7.95
2023-01-15T17:17:47.034Z,8.57
2023-01-15T17:20:17.841Z,9.05
2023-01-15T17:22:50.123Z,9.65
2023-01-15T17:25:28.648Z,9.88
2023-01-15T17:28:00.142Z,9.70
2023-01-15T17:30:35.480Z,11.52
2023-01-15T17:33:09.251Z,8.30
2023-01-15T17:35:44.055Z,9.60
2023-01-15T17:38:14.352Z,9.57
2023-01-15T17:40:43.599Z,8.93
2023-01-15T17:43:16.551Z,11.27
2023-01-15T17:45:45.476Z,7.80
2023-01-15T17:48:14.672Z,9.77
2023-01-15T17:50:43.292Z,9.90
2023-01-15T17:53:12.651Z,9.77
2023-01-15T17:56:00.058Z,8.25
2023-01-15T17:58:48.034Z,9.90
2023-01-15T18:01:43.340Z,10.57
2023-01-15T18:05:06.647Z,9.15
2023-01-15T18:07:43.687Z,9.45
2023-01-15T18:10:19.729Z,9.80
2023-01-15T18:12:51.606Z,7.55
2023-01-15T18:15:20.805Z,10.35
2023-01-15T18:17:51.074Z,7.72
2023-01-15T18:20:20.677Z,11.60
2023-01-15T18:22:49.672Z,10.35
2023-01-15T18:25:18.391Z,10.15
2023-01-15T18:27:48.742Z,10.45
2023-01-15T18:30:18.506Z,12.32
2023-01-15T18:32:47.131Z,7.07
2023-01-15T18:35:15.770Z,10.02
2023-01-15T18:37:45.183Z,8.48
2023-01-15T18:40:15.135Z,9.07
2023-01-15T18:43:02.523Z,7.88
2023-01-15T18:45:50.387Z,8.30
2023-01-15T18:48:18.948Z,8.63
2023-01-15T18:50:49.635Z,7.10
2023-01-15T18:53:18.232Z,8.40
2023-01-15T18:55:47.833Z,8.10
2023-01-15T18:58:17.953Z,8.60
2023-01-15T19:00:46.697Z,7.70
2023-01-15T19:03:15.593Z,9.05
2023-01-15T19:05:45.327Z,8.18
2023-01-15T19:08:14.846Z,7.00
2023-01-15T19:10:43.687Z,6.22
2023-01-15T19:13:17.431Z,8.77
2023-01-15T19:16:04.938Z,6.72
2023-01-15T19:18:42.935Z,7.03
2023-01-15T19:21:14.589Z,7.70
2023-01-15T19:23:43.365Z,6.25
2023-01-15T19:26:12.975Z,8.15
2023-01-15T19:28:42.032Z,6.15
2023-01-15T19:31:29.570Z,7.00
2023-01-15T19:34:31.226Z,7.45
2023-01-15T19:36:48.843Z,6.97
2023-01-15T19:39:18.173Z,8.43
2023-01-15T19:42:05.265Z,6.13
2023-01-15T19:44:53.460Z,6.95
2023-01-15T19:47:50.273Z,7.78
2023-01-15T19:50:36.286Z,6.80
2023-01-15T19:53:06.808Z,6.13
2023-01-15T19:55:38.210Z,7.88
2023-01-15T19:58:10.411Z,6.05
2023-01-15T20:00:41.044Z,7.05
2023-01-15T20:03:13.986Z,7.07
2023-01-15T20:05:44.825Z,6.60
2023-01-15T20:08:17.613Z,7.28
2023-01-15T20:10:50.785Z,5.90
2023-01-15T20:13:41.584Z,7.85
2023-01-15T20:16:15.227Z,4.95
2023-01-15T20:18:44.930Z,5.82
2023-01-15T20:21:19.038Z,6.85
2023-01-15T20:23:48.848Z,7.35
2023-01-15T20:26:18.809Z,7.18
2023-01-15T20:28:48.042Z,5.60
2023-01-15T20:31:19.065Z,7.93
2023-01-15T20:33:48.029Z,5.20
2023-01-15T20:36:16.462Z,7.75
2023-01-15T20:38:45.685Z,6.25
2023-01-15T20:41:32.811Z,7.18
2023-01-15T20:44:20.040Z,6.22
2023-01-15T20:46:48.748Z,5.90
2023-01-15T20:49:33.015Z,8.07
2023-01-15T20:52:01.557Z,6.40
2023-01-15T20:54:30.169Z,7.63
2023-01-15T20:56:58.448Z,6.75
2023-01-15T20:59:27.104Z,7.70
2023-01-15T21:01:55.706Z,5.93
2023-01-15T21:04:24.375Z,6.47
2023-01-15T21:06:52.972Z,6.30
2023-01-15T21:09:22.001Z,6.82
2023-01-15T21:11:50.524Z,5.68
2023-01-15T21:14:18.804Z,6.88
2023-01-15T21:16:51.795Z,4.63
2023-01-15T21:19:21.335Z,8.52
2023-01-15T21:21:49.922Z,7.15
2023-01-15T21:24:18.422Z,7.68
2023-01-15T21:26:48.759Z,5.07
2023-01-15T21:29:17.083Z,6.70
2023-01-15T21:31:46.020Z,6.72
2023-01-15T21:34:14.598Z,7.05
2023-01-15T21:36:43.354Z,6.05
2023-01-15T21:39:14.428Z,6.75
2023-01-15T21:42:02.468Z,6.38
2023-01-15T21:44:36.005Z,6.25
2023-01-15T21:47:10.944Z,7.03
2023-01-15T21:49:40.749Z,6.57
2023-01-15T21:52:16.229Z,6.03
2023-01-15T21:54:45.714Z,5.95
2023-01-15T21:57:15.755Z,5.95
2023-01-15T21:59:44.808Z,5.70
2023-01-15T22:02:17.193Z,7.47
2023-01-15T22:04:45.690Z,6.32
2023-01-15T22:07:14.705Z,6.57
2023-01-15T22:09:43.517Z,5.07
2023-01-15T22:12:14.077Z,7.28
2023-01-15T22:14:42.750Z,6.65
2023-01-15T22:17:12.091Z,6.90
2023-01-15T22:19:40.772Z,5.90
2023-01-15T22:22:11.681Z,6.00
2023-01-15T22:24:41.577Z,6.00
2023-01-15T22:27:15.824Z,6.53
2023-01-15T22:29:44.625Z,6.50
2023-01-15T22:32:16.333Z,5.65
2023-01-15T22:37:15.642Z,4.72
2023-01-15T22:39:44.067Z,4.55
2023-01-15T22:42:24.925Z,3.45
2023-01-15T22:44:54.441Z,4.07
2023-01-15T22:47:22.705Z,5.15
2023-01-15T22:49:51.352Z,4.30
2023-01-15T22:52:21.259Z,4.93
2023-01-15T22:54:49.883Z,3.67
2023-01-15T22:57:18.034Z,5.07
2023-01-15T22:59:46.852Z,3.67
2023-01-15T23:02:15.272Z,4.65
2023-01-15T23:04:44.311Z,3.67
2023-01-15T23:07:13.303Z,3.88
2023-01-15T23:09:41.969Z,3.45
2023-01-15T23:12:10.690Z,3.72
2023-01-15T23:14:39.081Z,3.65
2023-01-15T23:17:07.338Z,3.50
2023-01-15T23:19:36.007Z,3.90
2023-01-15T23:22:04.146Z,2.90
2023-01-15T23:24:32.932Z,3.40
2023-01-15T23:27:01.562Z,3.00
2023-01-15T23:29:30.262Z,4.57
2023-01-15T23:31:58.520Z,3.15
2023-01-15T23:34:27.253Z,3.78
2023-01-15T23:36:55.871Z,2.85
2023-01-15T23:39:24.168Z,3.92
2023-01-15T23:42:11.396Z,2.83
2023-01-15T23:44:58.197Z,2.80
2023-01-15T23:47:26.368Z,4.57
2023-01-15T23:49:54.719Z,2.90
2023-01-15T23:52:23.753Z,3.53
2023-01-15T23:54:53.192Z,3.08
2023-01-15T23:57:21.562Z,3.72
2023-01-15T23:59:50.275Z,2.17
